sensor_id;sensor_type;location;lat;lon;timestamp;pressure;altitude;pressure_sealevel;temperature;humidity
34243;BME280;20504;43.214;27.920;2023-01-23T00:00:59;97449.59;;;12.88;100.00
34243;BME280;20504;43.214;27.920;2023-01-23T00:03:27;97481.53;;;12.59;100.00
34243;BME280;20504;43.214;27.920;2023-01-23T00:06:03;97505.72;;;12.79;100.00
34243;BME280;20504;43.214;27.920;2023-01-23T00:08:30;97548.63;;;12.61;100.00
34243;BME280;20504;43.214;27.920;2023-01-23T00:10:56;97556.78;;;12.59;100.00
34243;BME280;20504;43.214;27.920;2023-01-23T00:13:22;97569.25;;;12.59;100.00
34243;BME280;20504;43.214;27.920;2023-01-23T00:15:47;97549.09;;;12.64;100.00
34243;BME280;20504;43.214;27.920;2023-01-23T00:18:13;97571.53;;;12.62;100.00
34243;BME280;20504;43.214;27.920;2023-01-23T00:20:39;97599.25;;;12.67;100.00
34243;BME280;20504;43.214;27.920;2023-01-23T00:23:06;97592.28;;;12.66;100.00
34243;BME280;20504;43.214;27.920;2023-01-23T00:25:33;97638.22;;;12.75;100.00
34243;BME280;20504;43.214;27.920;2023-01-23T00:27:59;97661.59;;;12.80;100.00
34243;BME280;20504;43.214;27.920;2023-01-23T00:30:24;97726.47;;;12.56;100.00
34243;BME280;20504;43.214;27.920;2023-01-23T00:32:50;97810.69;;;12.55;100.00
34243;BME280;20504;43.214;27.920;2023-01-23T00:35:15;97850.75;;;12.54;100.00
34243;BME280;20504;43.214;27.920;2023-01-23T00:37:41;97862.69;;;12.58;100.00
34243;BME280;20504;43.214;27.920;2023-01-23T00:40:07;97934.06;;;12.38;100.00
34243;BME280;20504;43.214;27.920;2023-01-23T00:42:33;97952.88;;;12.28;100.00
34243;BME280;20504;43.214;27.920;2023-01-23T00:44:58;97961.25;;;12.48;100.00
34243;BME280;20504;43.214;27.920;2023-01-23T00:47:24;97961.69;;;12.60;100.00
34243;BME280;20504;43.214;27.920;2023-01-23T00:49:49;98034.88;;;12.48;100.00
34243;BME280;20504;43.214;27.920;2023-01-23T00:52:18;98056.78;;;12.50;100.00
34243;BME280;20504;43.214;27.920;2023-01-23T00:54:43;98125.72;;;12.43;100.00
34243;BME280;20504;43.214;27.920;2023-01-23T00:57:09;98215.59;;;12.39;100.00
34243;BME280;20504;43.214;27.920;2023-01-23T00:59:34;98246.34;;;12.50;100.00
34243;BME280;20504;43.214;27.920;2023-01-23T01:02:00;98314.13;;;12.30;100.00
34243;BME280;20504;43.214;27.920;2023-01-23T01:04:25;98404.56;;;12.12;100.00
34243;BME280;20504;43.214;27.920;2023-01-23T01:06:51;98382.38;;;12.37;100.00
34243;BME280;20504;43.214;27.920;2023-01-23T01:09:16;98369.59;;;12.33;100.00
34243;BME280;20504;43.214;27.920;2023-01-23T01:11:42;98408.78;;;12.31;100.00
34243;BME280;20504;43.214;27.920;2023-01-23T01:14:07;98468.75;;;12.33;100.00
34243;BME280;20504;43.214;27.920;2023-01-23T01:16:33;98498.00;;;12.33;100.00
34243;BME280;20504;43.214;27.920;2023-01-23T01:18:59;98502.00;;;12.37;100.00
34243;BME280;20504;43.214;27.920;2023-01-23T01:21:24;98472.28;;;12.42;100.00
34243;BME280;20504;43.214;27.920;2023-01-23T01:23:50;98482.84;;;12.68;100.00
34243;BME280;20504;43.214;27.920;2023-01-23T01:26:15;98533.34;;;12.60;100.00
34243;BME280;20504;43.214;27.920;2023-01-23T01:28:42;98662.66;;;12.17;100.00
34243;BME280;20504;43.214;27.920;2023-01-23T01:31:11;98638.88;;;12.33;100.00
34243;BME280;20504;43.214;27.920;2023-01-23T01:33:38;98656.50;;;12.34;100.00
34243;BME280;20504;43.214;27.920;2023-01-23T01:36:11;98638.41;;;12.38;100.00
34243;BME280;20504;43.214;27.920;2023-01-23T01:38:37;98673.47;;;12.41;100.00
34243;BME280;20504;43.214;27.920;2023-01-23T01:41:03;98692.16;;;12.50;100.00
34243;BME280;20504;43.214;27.920;2023-01-23T01:43:29;98737.34;;;12.50;100.00
34243;BME280;20504;43.214;27.920;2023-01-23T01:46:14;98783.16;;;12.43;100.00
34243;BME280;20504;43.214;27.920;2023-01-23T01:49:01;98794.19;;;12.49;100.00
34243;BME280;20504;43.214;27.920;2023-01-23T01:51:48;98801.06;;;12.41;100.00
34243;BME280;20504;43.214;27.920;2023-01-23T01:56:57;98868.94;;;12.18;100.00
34243;BME280;20504;43.214;27.920;2023-01-23T01:59:26;98863.63;;;12.18;100.00
34243;BME280;20504;43.214;27.920;2023-01-23T02:01:57;98821.28;;;12.34;100.00
34243;BME280;20504;43.214;27.920;2023-01-23T02:04:32;98825.47;;;12.37;100.00
34243;BME280;20504;43.214;27.920;2023-01-23T02:07:04;98896.38;;;12.19;100.00
34243;BME280;20504;43.214;27.920;2023-01-23T02:09:31;98927.41;;;12.18;100.00
34243;BME280;20504;43.214;27.920;2023-01-23T02:11:59;98946.41;;;12.23;100.00
34243;BME280;20504;43.214;27.920;2023-01-23T02:14:25;98962.88;;;11.99;100.00
34243;BME280;20504;43.214;27.920;2023-01-23T02:16:51;98991.50;;;12.15;100.00
34243;BME280;20504;43.214;27.920;2023-01-23T02:24:39;98993.84;;;12.18;100.00
34243;BME280;20504;43.214;27.920;2023-01-23T02:27:06;98994.03;;;12.07;100.00
34243;BME280;20504;43.214;27.920;2023-01-23T02:29:41;98922.91;;;12.28;100.00
34243;BME280;20504;43.214;27.920;2023-01-23T02:32:07;98954.88;;;12.09;100.00
34243;BME280;20504;43.214;27.920;2023-01-23T02:34:33;98932.91;;;12.07;100.00
34243;BME280;20504;43.214;27.920;2023-01-23T02:36:58;98909.00;;;12.07;100.00
34243;BME280;20504;43.214;27.920;2023-01-23T02:39:24;98853.00;;;12.18;100.00
34243;BME280;20504;43.214;27.920;2023-01-23T02:41:50;98860.97;;;12.18;100.00
34243;BME280;20504;43.214;27.920;2023-01-23T02:44:20;98899.41;;;11.96;100.00
34243;BME280;20504;43.214;27.920;2023-01-23T02:46:56;98797.97;;;12.10;100.00
34243;BME280;20504;43.214;27.920;2023-01-23T02:49:22;98851.44;;;11.98;100.00
34243;BME280;20504;43.214;27.920;2023-01-23T02:51:48;98839.59;;;11.92;100.00
34243;BME280;20504;43.214;27.920;2023-01-23T02:54:14;98839.78;;;11.81;100.00
34243;BME280;20504;43.214;27.920;2023-01-23T02:56:40;98783.81;;;11.92;100.00
34243;BME280;20504;43.214;27.920;2023-01-23T02:59:07;98718.84;;;12.04;100.00
34243;BME280;20504;43.214;27.920;2023-01-23T03:01:51;98772.03;;;11.67;100.00
34243;BME280;20504;43.214;27.920;2023-01-23T03:04:16;98779.63;;;11.62;100.00
34243;BME280;20504;43.214;27.920;2023-01-23T03:06:42;98772.53;;;11.53;100.00
34243;BME280;20504;43.214;27.920;2023-01-23T03:09:14;98734.19;;;11.65;100.00
34243;BME280;20504;43.214;27.920;2023-01-23T03:11:41;98766.44;;;11.43;100.00
34243;BME280;20504;43.214;27.920;2023-01-23T03:14:10;98715.81;;;11.54;100.00
34243;BME280;20504;43.214;27.920;2023-01-23T03:16:36;98711.69;;;11.42;100.00
34243;BME280;20504;43.214;27.920;2023-01-23T03:19:04;98668.91;;;11.45;100.00
34243;BME280;20504;43.214;27.920;2023-01-23T03:21:34;98662.25;;;11.59;100.00
34243;BME280;20504;43.214;27.920;2023-01-23T03:24:01;98650.28;;;11.55;100.00
34243;BME280;20504;43.214;27.920;2023-01-23T03:26:27;98660.59;;;11.58;100.00
34243;BME280;20504;43.214;27.920;2023-01-23T03:28:52;98711.50;;;11.53;100.00
34243;BME280;20504;43.214;27.920;2023-01-23T03:31:36;98708.13;;;11.51;100.00
34243;BME280;20504;43.214;27.920;2023-01-23T03:34:02;98723.78;;;11.54;100.00
34243;BME280;20504;43.214;27.920;2023-01-23T03:36:27;98725.81;;;11.60;100.00
34243;BME280;20504;43.214;27.920;2023-01-23T03:38:53;98814.13;;;11.35;100.00
34243;BME280;20504;43.214;27.920;2023-01-23T03:41:37;98798.00;;;11.46;100.00
34243;BME280;20504;43.214;27.920;2023-01-23T03:44:07;98883.69;;;11.19;100.00
34243;BME280;20504;43.214;27.920;2023-01-23T03:46:33;98903.09;;;11.29;100.00
34243;BME280;20504;43.214;27.920;2023-01-23T03:48:58;98954.22;;;11.12;100.00
34243;BME280;20504;43.214;27.920;2023-01-23T03:51:24;98938.41;;;11.39;100.00
34243;BME280;20504;43.214;27.920;2023-01-23T03:53:49;99006.59;;;11.19;100.00
34243;BME280;20504;43.214;27.920;2023-01-23T03:56:15;99093.66;;;10.95;100.00
34243;BME280;20504;43.214;27.920;2023-01-23T03:58:40;99080.28;;;10.97;100.00
34243;BME280;20504;43.214;27.920;2023-01-23T04:01:06;99112.09;;;10.87;100.00
34243;BME280;20504;43.214;27.920;2023-01-23T04:03:32;99143.69;;;10.69;100.00
34243;BME280;20504;43.214;27.920;2023-01-23T04:05:58;99073.44;;;10.94;100.00
34243;BME280;20504;43.214;27.920;2023-01-23T04:08:24;99055.66;;;10.75;100.00
34243;BME280;20504;43.214;27.920;2023-01-23T04:10:49;99011.75;;;11.11;100.00
34243;BME280;20504;43.214;27.920;2023-01-23T04:13:15;99091.72;;;10.57;100.00
34243;BME280;20504;43.214;27.920;2023-01-23T04:15:41;98968.19;;;11.04;100.00
34243;BME280;20504;43.214;27.920;2023-01-23T04:18:06;99013.09;;;10.77;100.00
34243;BME280;20504;43.214;27.920;2023-01-23T04:20:32;99002.63;;;10.75;100.00
34243;BME280;20504;43.214;27.920;2023-01-23T04:22:57;98973.47;;;10.85;100.00
34243;BME280;20504;43.214;27.920;2023-01-23T04:25:26;99010.84;;;10.72;100.00
34243;BME280;20504;43.214;27.920;2023-01-23T04:27:54;98967.47;;;10.83;100.00
34243;BME280;20504;43.214;27.920;2023-01-23T04:30:19;98966.78;;;10.81;100.00
34243;BME280;20504;43.214;27.920;2023-01-23T04:32:45;98985.19;;;10.73;100.00
34243;BME280;20504;43.214;27.920;2023-01-23T04:35:10;98906.47;;;11.02;100.00
34243;BME280;20504;43.214;27.920;2023-01-23T04:37:36;98929.22;;;10.95;100.00
34243;BME280;20504;43.214;27.920;2023-01-23T04:40:01;98940.81;;;10.94;100.00
34243;BME280;20504;43.214;27.920;2023-01-23T04:42:27;98977.53;;;10.79;100.00
34243;BME280;20504;43.214;27.920;2023-01-23T04:44:52;98933.13;;;10.91;100.00
34243;BME280;20504;43.214;27.920;2023-01-23T04:47:18;98962.31;;;10.81;100.00
34243;BME280;20504;43.214;27.920;2023-01-23T04:49:43;98944.97;;;10.77;100.00
34243;BME280;20504;43.214;27.920;2023-01-23T04:52:09;98957.00;;;10.91;100.00
34243;BME280;20504;43.214;27.920;2023-01-23T04:54:34;98962.31;;;10.91;100.00
34243;BME280;20504;43.214;27.920;2023-01-23T04:57:00;99017.84;;;10.73;100.00
34243;BME280;20504;43.214;27.920;2023-01-23T04:59:25;98928.97;;;10.98;100.00
34243;BME280;20504;43.214;27.920;2023-01-23T05:01:50;98950.88;;;11.00;100.00
34243;BME280;20504;43.214;27.920;2023-01-23T05:04:16;98972.50;;;10.96;100.00
34243;BME280;20504;43.214;27.920;2023-01-23T05:06:41;98944.28;;;11.14;100.00
34243;BME280;20504;43.214;27.920;2023-01-23T05:09:07;99031.22;;;10.72;100.00
34243;BME280;20504;43.214;27.920;2023-01-23T05:11:32;98978.09;;;11.02;100.00
34243;BME280;20504;43.214;27.920;2023-01-23T05:13:58;98976.84;;;10.87;100.00
34243;BME280;20504;43.214;27.920;2023-01-23T05:16:23;98964.28;;;10.99;100.00
34243;BME280;20504;43.214;27.920;2023-01-23T05:18:49;98993.31;;;10.81;100.00
34243;BME280;20504;43.214;27.920;2023-01-23T05:21:14;98996.94;;;10.89;100.00
34243;BME280;20504;43.214;27.920;2023-01-23T05:23:40;99033.22;;;10.79;100.00
34243;BME280;20504;43.214;27.920;2023-01-23T05:26:05;99007.81;;;10.96;100.00
34243;BME280;20504;43.214;27.920;2023-01-23T05:28:31;99062.66;;;10.86;100.00
34243;BME280;20504;43.214;27.920;2023-01-23T05:30:56;99067.16;;;10.95;100.00
34243;BME280;20504;43.214;27.920;2023-01-23T05:33:22;99119.06;;;10.88;100.00
34243;BME280;20504;43.214;27.920;2023-01-23T05:35:47;99128.69;;;10.89;100.00
34243;BME280;20504;43.214;27.920;2023-01-23T05:38:13;99153.84;;;10.95;100.00
34243;BME280;20504;43.214;27.920;2023-01-23T05:40:38;99169.72;;;10.85;100.00
34243;BME280;20504;43.214;27.920;2023-01-23T05:43:04;99161.78;;;10.95;100.00
34243;BME280;20504;43.214;27.920;2023-01-23T05:45:30;99199.34;;;10.90;100.00
34243;BME280;20504;43.214;27.920;2023-01-23T05:47:56;99217.19;;;10.88;100.00
34243;BME280;20504;43.214;27.920;2023-01-23T05:50:21;99256.06;;;10.78;100.00
34243;BME280;20504;43.214;27.920;2023-01-23T05:52:48;99236.91;;;10.65;100.00
34243;BME280;20504;43.214;27.920;2023-01-23T05:55:14;99220.41;;;10.82;100.00
34243;BME280;20504;43.214;27.920;2023-01-23T05:57:40;99164.78;;;11.01;100.00
34243;BME280;20504;43.214;27.920;2023-01-23T06:00:06;99219.00;;;10.87;100.00
34243;BME280;20504;43.214;27.920;2023-01-23T06:02:33;99284.75;;;10.84;100.00
34243;BME280;20504;43.214;27.920;2023-01-23T06:04:58;99277.22;;;10.89;100.00
34243;BME280;20504;43.214;27.920;2023-01-23T06:07:24;99353.72;;;10.84;100.00
34243;BME280;20504;43.214;27.920;2023-01-23T06:09:49;99361.53;;;10.85;100.00
34243;BME280;20504;43.214;27.920;2023-01-23T06:12:15;99375.94;;;11.13;100.00
34243;BME280;20504;43.214;27.920;2023-01-23T06:14:40;99417.97;;;11.08;100.00
34243;BME280;20504;43.214;27.920;2023-01-23T06:17:06;99481.31;;;11.02;100.00
34243;BME280;20504;43.214;27.920;2023-01-23T06:19:31;99522.44;;;10.96;100.00
34243;BME280;20504;43.214;27.920;2023-01-23T06:21:57;99565.13;;;10.93;100.00
34243;BME280;20504;43.214;27.920;2023-01-23T06:24:23;99624.00;;;10.65;100.00
34243;BME280;20504;43.214;27.920;2023-01-23T06:26:49;99590.34;;;10.76;100.00
34243;BME280;20504;43.214;27.920;2023-01-23T06:29:14;99652.94;;;10.68;100.00
34243;BME280;20504;43.214;27.920;2023-01-23T06:31:40;99610.97;;;10.73;100.00
34243;BME280;20504;43.214;27.920;2023-01-23T06:34:06;99596.28;;;10.80;100.00
34243;BME280;20504;43.214;27.920;2023-01-23T06:36:31;99623.88;;;10.88;100.00
34243;BME280;20504;43.214;27.920;2023-01-23T06:38:58;99685.22;;;10.73;100.00
34243;BME280;20504;43.214;27.920;2023-01-23T06:41:23;99668.84;;;10.68;100.00
34243;BME280;20504;43.214;27.920;2023-01-23T06:43:49;99659.31;;;10.99;100.00
34243;BME280;20504;43.214;27.920;2023-01-23T06:46:14;99727.69;;;10.84;100.00
34243;BME280;20504;43.214;27.920;2023-01-23T06:48:40;99786.97;;;10.60;100.00
34243;BME280;20504;43.214;27.920;2023-01-23T06:51:05;99828.56;;;10.60;100.00
34243;BME280;20504;43.214;27.920;2023-01-23T06:53:31;99860.75;;;10.67;100.00
34243;BME280;20504;43.214;27.920;2023-01-23T06:56:01;99811.00;;;10.81;100.00
34243;BME280;20504;43.214;27.920;2023-01-23T06:58:27;99820.31;;;10.98;100.00
34243;BME280;20504;43.214;27.920;2023-01-23T07:00:53;99826.31;;;10.89;100.00
34243;BME280;20504;43.214;27.920;2023-01-23T07:03:19;99856.50;;;10.99;100.00
34243;BME280;20504;43.214;27.920;2023-01-23T07:05:44;99881.34;;;10.98;100.00
34243;BME280;20504;43.214;27.920;2023-01-23T07:08:13;99640.47;;;11.56;100.00
34243;BME280;20504;43.214;27.920;2023-01-23T07:10:38;99382.53;;;12.01;100.00
34243;BME280;20504;43.214;27.920;2023-01-23T07:13:06;99336.81;;;12.07;100.00
34243;BME280;20504;43.214;27.920;2023-01-23T07:15:32;99425.34;;;11.98;100.00
34243;BME280;20504;43.214;27.920;2023-01-23T07:17:58;99428.41;;;12.03;100.00
34243;BME280;20504;43.214;27.920;2023-01-23T07:20:24;99404.31;;;12.44;100.00
34243;BME280;20504;43.214;27.920;2023-01-23T07:22:56;99479.03;;;12.41;100.00
34243;BME280;20504;43.214;27.920;2023-01-23T07:25:23;99697.53;;;12.05;100.00
34243;BME280;20504;43.214;27.920;2023-01-23T07:27:49;99869.69;;;11.68;100.00
34243;BME280;20504;43.214;27.920;2023-01-23T07:30:15;99789.16;;;12.22;100.00
34243;BME280;20504;43.214;27.920;2023-01-23T07:32:41;99914.38;;;11.85;100.00
34243;BME280;20504;43.214;27.920;2023-01-23T07:35:07;99992.56;;;11.94;100.00
34243;BME280;20504;43.214;27.920;2023-01-23T07:37:33;100016.22;;;12.08;100.00
34243;BME280;20504;43.214;27.920;2023-01-23T07:39:59;100059.97;;;12.15;100.00
34243;BME280;20504;43.214;27.920;2023-01-23T07:42:24;100026.34;;;12.59;100.00
34243;BME280;20504;43.214;27.920;2023-01-23T07:44:50;100099.00;;;12.70;100.00
34243;BME280;20504;43.214;27.920;2023-01-23T07:47:15;100190.81;;;12.65;100.00
34243;BME280;20504;43.214;27.920;2023-01-23T07:49:40;100266.00;;;12.56;100.00
34243;BME280;20504;43.214;27.920;2023-01-23T07:52:06;100285.56;;;12.55;100.00
34243;BME280;20504;43.214;27.920;2023-01-23T07:54:32;100338.47;;;12.70;100.00
34243;BME280;20504;43.214;27.920;2023-01-23T07:56:57;100380.44;;;12.67;100.00
34243;BME280;20504;43.214;27.920;2023-01-23T07:59:23;100372.22;;;12.81;100.00
34243;BME280;20504;43.214;27.920;2023-01-23T08:01:48;100442.50;;;13.02;100.00
34243;BME280;20504;43.214;27.920;2023-01-23T08:04:15;100545.34;;;12.80;100.00
34243;BME280;20504;43.214;27.920;2023-01-23T08:06:40;100579.66;;;12.71;100.00
34243;BME280;20504;43.214;27.920;2023-01-23T08:09:06;100627.91;;;12.54;100.00
34243;BME280;20504;43.214;27.920;2023-01-23T08:11:31;100654.09;;;12.48;100.00
34243;BME280;20504;43.214;27.920;2023-01-23T08:13:57;100668.88;;;12.52;100.00
34243;BME280;20504;43.214;27.920;2023-01-23T08:16:22;100626.09;;;12.42;100.00
34243;BME280;20504;43.214;27.920;2023-01-23T08:18:48;100700.34;;;12.20;100.00
34243;BME280;20504;43.214;27.920;2023-01-23T08:21:14;100743.06;;;12.04;100.00
34243;BME280;20504;43.214;27.920;2023-01-23T08:23:39;100679.19;;;12.18;100.00
34243;BME280;20504;43.214;27.920;2023-01-23T08:26:06;100642.28;;;12.26;100.00
34243;BME280;20504;43.214;27.920;2023-01-23T08:28:33;100646.31;;;12.19;100.00
34243;BME280;20504;43.214;27.920;2023-01-23T08:31:00;100675.09;;;11.87;100.00
34243;BME280;20504;43.214;27.920;2023-01-23T08:33:26;100608.91;;;12.09;100.00
34243;BME280;20504;43.214;27.920;2023-01-23T08:35:53;100595.38;;;11.87;100.00
34243;BME280;20504;43.214;27.920;2023-01-23T08:38:20;100625.66;;;11.85;100.00
34243;BME280;20504;43.214;27.920;2023-01-23T08:40:46;100601.66;;;11.99;100.00
34243;BME280;20504;43.214;27.920;2023-01-23T08:43:12;100599.31;;;11.94;100.00
34243;BME280;20504;43.214;27.920;2023-01-23T08:45:41;100584.44;;;12.04;100.00
34243;BME280;20504;43.214;27.920;2023-01-23T08:48:10;100552.31;;;12.07;100.00
34243;BME280;20504;43.214;27.920;2023-01-23T08:50:36;100511.03;;;12.27;100.00
34243;BME280;20504;43.214;27.920;2023-01-23T08:53:02;100579.75;;;12.21;100.00
34243;BME280;20504;43.214;27.920;2023-01-23T08:55:27;100552.69;;;12.52;100.00
34243;BME280;20504;43.214;27.920;2023-01-23T08:57:53;100533.50;;;12.60;100.00
34243;BME280;20504;43.214;27.920;2023-01-23T09:00:19;100593.81;;;12.59;100.00
34243;BME280;20504;43.214;27.920;2023-01-23T09:02:45;100621.22;;;12.36;100.00
34243;BME280;20504;43.214;27.920;2023-01-23T09:05:12;100622.13;;;12.60;100.00
34243;BME280;20504;43.214;27.920;2023-01-23T09:07:37;100647.78;;;12.61;100.00
34243;BME280;20504;43.214;27.920;2023-01-23T09:10:04;100666.50;;;12.60;100.00
34243;BME280;20504;43.214;27.920;2023-01-23T09:12:30;100650.78;;;12.57;100.00
34243;BME280;20504;43.214;27.920;2023-01-23T09:14:59;100706.34;;;12.49;100.00
34243;BME280;20504;43.214;27.920;2023-01-23T09:17:25;100699.22;;;12.49;100.00
34243;BME280;20504;43.214;27.920;2023-01-23T09:19:51;100698.22;;;12.63;100.00
34243;BME280;20504;43.214;27.920;2023-01-23T09:22:16;100645.16;;;12.98;100.00
34243;BME280;20504;43.214;27.920;2023-01-23T09:24:42;100640.75;;;13.10;100.00
34243;BME280;20504;43.214;27.920;2023-01-23T09:27:07;100629.88;;;13.25;100.00
34243;BME280;20504;43.214;27.920;2023-01-23T09:29:34;100763.56;;;12.80;100.00
34243;BME280;20504;43.214;27.920;2023-01-23T09:32:00;100728.00;;;12.93;100.00
34243;BME280;20504;43.214;27.920;2023-01-23T09:34:26;100753.66;;;13.07;100.00
34243;BME280;20504;43.214;27.920;2023-01-23T09:36:52;100820.13;;;12.70;100.00
34243;BME280;20504;43.214;27.920;2023-01-23T09:39:17;100866.81;;;12.49;100.00
34243;BME280;20504;43.214;27.920;2023-01-23T09:41:43;100854.78;;;12.56;100.00
34243;BME280;20504;43.214;27.920;2023-01-23T09:44:16;100867.34;;;12.54;100.00
34243;BME280;20504;43.214;27.920;2023-01-23T09:46:47;100882.41;;;12.41;100.00
34243;BME280;20504;43.214;27.920;2023-01-23T09:54:45;100842.13;;;12.60;100.00
34243;BME280;20504;43.214;27.920;2023-01-23T10:00:12;100980.28;;;11.95;100.00
34243;BME280;20504;43.214;27.920;2023-01-23T10:02:35;100956.81;;;11.87;100.00
34243;BME280;20504;43.214;27.920;2023-01-23T10:05:01;100888.91;;;12.10;100.00
34243;BME280;20504;43.214;27.920;2023-01-23T10:18:01;101000.97;;;11.31;100.00
34243;BME280;20504;43.214;27.920;2023-01-23T10:21:06;100946.25;;;11.29;100.00
34243;BME280;20504;43.214;27.920;2023-01-23T10:26:18;100889.91;;;11.09;100.00
34243;BME280;20504;43.214;27.920;2023-01-23T10:28:45;100844.03;;;11.07;100.00
34243;BME280;20504;43.214;27.920;2023-01-23T10:31:21;100839.94;;;11.02;100.00
34243;BME280;20504;43.214;27.920;2023-01-23T10:34:16;100796.88;;;10.97;100.00
34243;BME280;20504;43.214;27.920;2023-01-23T10:37:17;100758.81;;;10.98;100.00
34243;BME280;20504;43.214;27.920;2023-01-23T10:39:46;100698.38;;;11.15;100.00
34243;BME280;20504;43.214;27.920;2023-01-23T10:42:21;100681.72;;;11.13;100.00
34243;BME280;20504;43.214;27.920;2023-01-23T10:44:49;100702.09;;;11.13;100.00
34243;BME280;20504;43.214;27.920;2023-01-23T10:49:49;100677.31;;;11.27;100.00
34243;BME280;20504;43.214;27.920;2023-01-23T10:52:36;100683.13;;;11.19;100.00
34243;BME280;20504;43.214;27.920;2023-01-23T10:55:28;100681.44;;;11.18;100.00
34243;BME280;20504;43.214;27.920;2023-01-23T10:57:59;100694.81;;;11.16;100.00
34243;BME280;20504;43.214;27.920;2023-01-23T11:03:33;100723.06;;;11.03;100.00
34243;BME280;20504;43.214;27.920;2023-01-23T11:06:04;100741.66;;;10.89;100.00
34243;BME280;20504;43.214;27.920;2023-01-23T11:08:34;100676.97;;;11.18;100.00
34243;BME280;20504;43.214;27.920;2023-01-23T11:13:45;100754.34;;;10.84;100.00
34243;BME280;20504;43.214;27.920;2023-01-23T11:16:21;100713.41;;;11.02;100.00
34243;BME280;20504;43.214;27.920;2023-01-23T11:19:02;100695.56;;;11.18;100.00
34243;BME280;20504;43.214;27.920;2023-01-23T11:21:32;100683.38;;;11.29;100.00
34243;BME280;20504;43.214;27.920;2023-01-23T11:24:18;100676.75;;;11.48;100.00
34243;BME280;20504;43.214;27.920;2023-01-23T11:26:44;100717.69;;;11.32;100.00
34243;BME280;20504;43.214;27.920;2023-01-23T11:29:22;100759.81;;;11.38;100.00
34243;BME280;20504;43.214;27.920;2023-01-23T11:31:57;100857.56;;;10.88;100.00
34243;BME280;20504;43.214;27.920;2023-01-23T11:34:35;100781.56;;;11.02;100.00
34243;BME280;20504;43.214;27.920;2023-01-23T11:40:02;100729.69;;;11.10;100.00
34243;BME280;20504;43.214;27.920;2023-01-23T11:42:30;100783.16;;;10.76;100.00
34243;BME280;20504;43.214;27.920;2023-01-23T11:44:58;100714.72;;;10.95;100.00
34243;BME280;20504;43.214;27.920;2023-01-23T11:47:42;100661.19;;;11.30;100.00
34243;BME280;20504;43.214;27.920;2023-01-23T11:50:28;100729.22;;;11.04;100.00
34243;BME280;20504;43.214;27.920;2023-01-23T11:53:10;100696.66;;;11.29;100.00
34243;BME280;20504;43.214;27.920;2023-01-23T12:01:43;100881.38;;;10.60;100.00
34243;BME280;20504;43.214;27.920;2023-01-23T12:25:37;100811.53;;;10.45;100.00
34243;BME280;20504;43.214;27.920;2023-01-23T12:38:55;100946.75;;;9.98;100.00
34243;BME280;20504;43.214;27.920;2023-01-23T12:41:40;100831.75;;;10.62;100.00
34243;BME280;20504;43.214;27.920;2023-01-23T12:51:56;100955.66;;;10.60;100.00
34243;BME280;20504;43.214;27.920;2023-01-23T12:54:32;100977.19;;;10.54;100.00
34243;BME280;20504;43.214;27.920;2023-01-23T12:57:01;100965.63;;;10.71;100.00
34243;BME280;20504;43.214;27.920;2023-01-23T13:02:07;101052.59;;;10.50;100.00
34243;BME280;20504;43.214;27.920;2023-01-23T13:13:45;101152.91;;;10.26;100.00
34243;BME280;20504;43.214;27.920;2023-01-23T13:16:13;101121.59;;;10.32;100.00
34243;BME280;20504;43.214;27.920;2023-01-23T13:18:39;101163.06;;;10.16;100.00
34243;BME280;20504;43.214;27.920;2023-01-23T13:21:34;101176.34;;;9.82;100.00
34243;BME280;20504;43.214;27.920;2023-01-23T13:44:03;101046.84;;;9.93;100.00
34243;BME280;20504;43.214;27.920;2023-01-23T13:52:41;100997.63;;;10.05;100.00
34243;BME280;20504;43.214;27.920;2023-01-23T13:55:39;101016.66;;;9.95;100.00
34243;BME280;20504;43.214;27.920;2023-01-23T13:58:26;101035.22;;;9.95;100.00
34243;BME280;20504;43.214;27.920;2023-01-23T14:01:00;101062.22;;;9.86;100.00
34243;BME280;20504;43.214;27.920;2023-01-23T14:03:49;101073.44;;;9.74;100.00
34243;BME280;20504;43.214;27.920;2023-01-23T14:06:36;101039.75;;;9.93;100.00
34243;BME280;20504;43.214;27.920;2023-01-23T14:09:03;101053.59;;;9.98;100.00
34243;BME280;20504;43.214;27.920;2023-01-23T14:11:42;101055.31;;;9.99;100.00
34243;BME280;20504;43.214;27.920;2023-01-23T14:14:10;101034.72;;;10.20;100.00
34243;BME280;20504;43.214;27.920;2023-01-23T14:16:53;101130.59;;;9.95;100.00
34243;BME280;20504;43.214;27.920;2023-01-23T14:21:55;101159.69;;;9.97;100.00
34243;BME280;20504;43.214;27.920;2023-01-23T14:24:41;101213.66;;;9.60;100.00
34243;BME280;20504;43.214;27.920;2023-01-23T14:27:16;101178.28;;;9.61;100.00
34243;BME280;20504;43.214;27.920;2023-01-23T14:30:12;101132.94;;;9.84;100.00
34243;BME280;20504;43.214;27.920;2023-01-23T14:32:38;101198.69;;;9.41;100.00
34243;BME280;20504;43.214;27.920;2023-01-23T14:37:51;101185.72;;;8.99;100.00
34243;BME280;20504;43.214;27.920;2023-01-23T14:40:20;101155.56;;;8.85;100.00
34243;BME280;20504;43.214;27.920;2023-01-23T14:42:59;101106.22;;;8.84;100.00
34243;BME280;20504;43.214;27.920;2023-01-23T14:45:30;101042.22;;;8.94;100.00
34243;BME280;20504;43.214;27.920;2023-01-23T14:47:57;101017.31;;;8.81;100.00
34243;BME280;20504;43.214;27.920;2023-01-23T14:50:26;100988.56;;;8.73;100.00
34243;BME280;20504;43.214;27.920;2023-01-23T14:53:02;100961.00;;;8.79;100.00